Time;durP1;ratioP1;P1;durP2;ratioP2;P2;SDS_P1;SDS_P2;PMS_P1;PMS_P2;Temp;Humidity;BMP_temperature;BMP_pressure;BME280_temperature;BME280_humidity;BME280_pressure;Samples;Min_cycle;Max_cycle;Signal;HPM_P1;HPM_P2
2020/12/14 00:00:30;;;;;;;8.00;5.80;;;3.80;99.90;;;;;;5070562;28;20466;-51
2020/12/14 00:02:59;;;;;;;8.90;5.77;;;3.80;99.90;;;;;;5070919;28;20474;-51
2020/12/14 00:05:26;;;;;;;9.13;5.63;;;4.00;99.90;;;;;;5059388;28;20582;-51
2020/12/14 00:07:52;;;;;;;7.40;5.20;;;3.90;99.90;;;;;;5058915;28;20451;-51
2020/12/14 00:10:20;;;;;;;10.37;6.17;;;3.90;99.90;;;;;;5070369;28;20466;-51
2020/12/14 00:12:47;;;;;;;8.53;6.20;;;3.90;99.90;;;;;;5070511;28;20964;-51
2020/12/14 00:15:14;;;;;;;9.37;6.03;;;4.00;99.90;;;;;;5070952;28;20459;-50
2020/12/14 00:17:40;;;;;;;9.10;6.33;;;4.00;99.90;;;;;;5070936;28;20463;-51
2020/12/14 00:20:07;;;;;;;8.00;6.40;;;4.00;99.90;;;;;;5070399;28;20540;-50
2020/12/14 00:22:34;;;;;;;10.40;6.27;;;4.00;99.90;;;;;;5071320;28;20496;-50
2020/12/14 00:25:01;;;;;;;10.83;6.70;;;3.90;99.90;;;;;;5070078;28;20516;-50
2020/12/14 00:27:28;;;;;;;10.43;6.70;;;4.00;99.90;;;;;;5071535;28;20447;-51
2020/12/14 00:29:55;;;;;;;10.17;6.40;;;4.00;99.90;;;;;;5056801;28;20854;-50
2020/12/14 00:32:23;;;;;;;9.83;6.70;;;4.00;99.90;;;;;;5051352;28;20505;-50
2020/12/14 00:34:49;;;;;;;8.30;6.43;;;4.10;99.90;;;;;;5068875;28;21020;-51
2020/12/14 00:37:16;;;;;;;10.47;6.90;;;4.10;99.90;;;;;;5068664;28;20514;-51
2020/12/14 00:39:42;;;;;;;14.00;7.43;;;4.20;99.90;;;;;;5070622;28;20458;-51
2020/12/14 00:42:09;;;;;;;9.40;6.60;;;4.10;99.90;;;;;;5070640;28;20481;-51
2020/12/14 00:44:36;;;;;;;9.30;6.33;;;4.20;99.90;;;;;;5064864;28;20482;-51
2020/12/14 00:47:03;;;;;;;9.80;6.53;;;4.20;99.90;;;;;;5068679;28;20541;-51
2020/12/14 00:49:29;;;;;;;8.90;6.03;;;4.20;99.90;;;;;;5063938;28;20473;-51
2020/12/14 00:51:57;;;;;;;8.37;6.37;;;4.20;99.90;;;;;;5068554;28;20528;-50
2020/12/14 00:54:24;;;;;;;7.90;5.77;;;4.00;99.90;;;;;;5070215;28;20483;-52
2020/12/14 00:56:52;;;;;;;10.80;6.80;;;3.90;99.90;;;;;;5070009;28;20516;-51
2020/12/14 00:59:18;;;;;;;10.13;7.10;;;3.90;99.90;;;;;;5069535;28;20459;-51
2020/12/14 01:01:50;;;;;;;8.27;5.87;;;3.90;99.90;;;;;;5070501;28;21163;-51
2020/12/14 01:04:17;;;;;;;10.00;6.70;;;4.00;99.90;;;;;;5069632;28;20572;-51
2020/12/14 01:06:43;;;;;;;9.33;6.47;;;4.00;99.90;;;;;;5069322;28;20501;-51
2020/12/14 01:09:10;;;;;;;11.13;6.80;;;4.00;99.90;;;;;;5069559;28;20466;-51
2020/12/14 01:11:36;;;;;;;10.77;6.80;;;3.80;99.90;;;;;;5070658;28;20454;-52
2020/12/14 01:14:03;;;;;;;8.90;5.93;;;3.80;99.90;;;;;;5067697;28;20483;-51
2020/12/14 01:16:29;;;;;;;11.17;7.47;;;3.90;99.90;;;;;;5070081;28;20451;-51
2020/12/14 01:19:00;;;;;;;12.13;7.80;;;3.90;99.90;;;;;;5067091;28;20556;-52
2020/12/14 01:21:26;;;;;;;12.00;7.13;;;3.80;99.90;;;;;;5067607;28;20462;-52
2020/12/14 01:23:53;;;;;;;10.50;7.60;;;3.90;99.90;;;;;;5067029;28;20482;-52
2020/12/14 01:26:19;;;;;;;11.27;7.67;;;3.60;99.90;;;;;;5070547;28;21006;-52
2020/12/14 01:28:46;;;;;;;10.30;7.10;;;3.60;99.90;;;;;;5070166;28;20463;-52
2020/12/14 01:31:13;;;;;;;9.97;6.97;;;3.50;99.90;;;;;;5069933;28;20466;-52
2020/12/14 01:33:39;;;;;;;10.03;6.17;;;3.40;99.90;;;;;;5069212;28;20497;-51
2020/12/14 01:36:07;;;;;;;9.80;6.47;;;3.50;99.90;;;;;;5050751;28;20452;-52
2020/12/14 01:38:34;;;;;;;8.80;6.63;;;3.50;99.90;;;;;;5058382;28;20443;-51
2020/12/14 01:41:00;;;;;;;9.83;6.17;;;3.40;99.90;;;;;;5070864;28;20447;-51
2020/12/14 01:43:27;;;;;;;10.20;7.07;;;3.40;99.90;;;;;;5070757;28;20478;-51
2020/12/14 01:45:54;;;;;;;11.13;6.70;;;3.30;99.90;;;;;;5070145;28;20548;-51
2020/12/14 01:48:24;;;;;;;10.63;7.27;;;3.30;99.90;;;;;;5068293;28;20469;-52
2020/12/14 01:50:51;;;;;;;11.07;6.40;;;3.30;99.90;;;;;;5070225;28;20890;-51
2020/12/14 01:53:19;;;;;;;11.00;7.10;;;3.30;99.90;;;;;;5070201;28;20479;-52
2020/12/14 01:55:47;;;;;;;12.13;6.77;;;3.20;99.90;;;;;;5070380;28;20472;-52
2020/12/14 01:58:14;;;;;;;9.60;6.43;;;3.20;99.90;;;;;;5069947;28;20487;-51
2020/12/14 02:00:40;;;;;;;9.50;6.83;;;3.20;99.90;;;;;;5069632;28;20451;-51
2020/12/14 02:03:07;;;;;;;9.50;6.70;;;3.10;99.90;;;;;;5069566;28;20455;-51
2020/12/14 02:05:33;;;;;;;9.10;6.57;;;3.00;99.90;;;;;;5070227;28;20490;-51
2020/12/14 02:08:00;;;;;;;9.37;6.27;;;3.00;99.90;;;;;;5070421;28;20479;-51
2020/12/14 02:10:27;;;;;;;9.77;6.00;;;3.00;99.90;;;;;;5070034;28;20455;-51
2020/12/14 02:12:54;;;;;;;9.27;6.33;;;2.80;99.90;;;;;;5069730;28;20462;-51
2020/12/14 02:15:21;;;;;;;10.03;6.20;;;2.80;99.90;;;;;;5067295;28;20449;-51
2020/12/14 02:17:47;;;;;;;11.50;6.47;;;2.90;99.90;;;;;;5057544;28;21210;-51
2020/12/14 02:20:14;;;;;;;8.53;5.93;;;2.90;99.90;;;;;;5069972;28;20528;-51
2020/12/14 02:22:40;;;;;;;10.10;6.60;;;3.00;99.90;;;;;;5069837;28;20983;-51
2020/12/14 02:25:08;;;;;;;9.87;6.50;;;3.20;99.90;;;;;;5070060;28;20471;-51
2020/12/14 02:27:36;;;;;;;9.30;5.70;;;3.20;99.90;;;;;;5073002;28;20491;-52
2020/12/14 02:30:04;;;;;;;9.20;6.37;;;3.00;99.90;;;;;;5073633;28;20446;-51
2020/12/14 02:32:31;;;;;;;10.07;6.23;;;2.80;99.90;;;;;;5071733;28;20867;-50
2020/12/14 02:34:58;;;;;;;7.27;5.23;;;2.80;99.90;;;;;;5071313;28;20463;-51
2020/12/14 02:37:27;;;;;;;8.10;5.90;;;2.90;99.90;;;;;;5064782;28;20511;-51
2020/12/14 02:39:53;;;;;;;8.20;6.03;;;2.90;99.90;;;;;;5073606;28;20469;-51
2020/12/14 02:42:22;;;;;;;9.20;5.60;;;3.00;99.90;;;;;;5072983;28;20451;-51
2020/12/14 02:44:49;;;;;;;9.73;5.87;;;3.00;99.90;;;;;;5073358;28;20477;-51
2020/12/14 02:47:16;;;;;;;12.40;7.90;;;3.00;99.90;;;;;;5067108;28;20486;-51
2020/12/14 02:49:43;;;;;;;9.17;6.30;;;2.90;99.90;;;;;;5071224;28;20445;-51
2020/12/14 02:52:11;;;;;;;10.03;6.00;;;3.00;99.90;;;;;;5073172;28;20454;-51
2020/12/14 02:54:39;;;;;;;10.23;6.80;;;2.90;99.90;;;;;;5054938;28;20475;-51
2020/12/14 02:57:05;;;;;;;11.33;6.80;;;2.70;99.90;;;;;;5073195;28;20442;-51
2020/12/14 02:59:33;;;;;;;13.50;7.50;;;2.70;99.90;;;;;;5073399;28;20447;-51
2020/12/14 03:01:59;;;;;;;9.27;6.23;;;2.60;99.90;;;;;;5073090;28;20982;-51
2020/12/14 03:04:26;;;;;;;8.60;5.73;;;2.50;99.90;;;;;;5072589;28;20478;-51
2020/12/14 03:06:53;;;;;;;8.90;6.50;;;2.50;99.90;;;;;;5073192;28;20494;-51
2020/12/14 03:09:21;;;;;;;10.90;7.03;;;2.50;99.90;;;;;;5072738;28;20451;-51
2020/12/14 03:11:48;;;;;;;9.60;5.90;;;2.40;99.90;;;;;;5072812;28;20492;-52
2020/12/14 03:14:15;;;;;;;7.60;5.87;;;2.50;99.90;;;;;;5073254;28;20469;-51
2020/12/14 03:16:44;;;;;;;8.13;5.93;;;2.40;99.90;;;;;;5073413;28;20576;-51
2020/12/14 03:19:11;;;;;;;10.47;6.40;;;2.20;99.90;;;;;;5072910;28;20820;-51
2020/12/14 03:21:37;;;;;;;11.00;6.33;;;2.10;99.90;;;;;;5072982;28;20438;-51
2020/12/14 03:24:04;;;;;;;11.33;7.40;;;2.10;99.90;;;;;;5072590;28;20470;-51
2020/12/14 03:26:31;;;;;;;14.10;7.83;;;2.10;99.90;;;;;;5072053;28;20479;-51
2020/12/14 03:28:57;;;;;;;13.17;7.77;;;2.10;99.90;;;;;;5072821;28;20443;-51
2020/12/14 03:31:24;;;;;;;13.80;7.50;;;2.00;99.90;;;;;;5072901;28;20505;-51
2020/12/14 03:33:53;;;;;;;11.27;7.30;;;1.90;99.90;;;;;;5072393;28;20473;-51
2020/12/14 03:36:20;;;;;;;10.30;7.40;;;2.10;99.90;;;;;;5072820;28;20434;-51
2020/12/14 03:38:47;;;;;;;9.33;6.17;;;2.10;99.90;;;;;;5071531;28;20454;-51
2020/12/14 03:41:14;;;;;;;9.80;6.17;;;2.10;99.90;;;;;;5072588;28;20497;-51
2020/12/14 03:43:40;;;;;;;11.13;7.23;;;2.20;99.90;;;;;;5072583;28;21178;-51
2020/12/14 03:46:14;;;;;;;10.23;6.10;;;2.20;99.90;;;;;;5072135;28;20474;-51
2020/12/14 03:48:40;;;;;;;8.70;6.50;;;2.10;99.90;;;;;;5061102;28;20887;-51
2020/12/14 03:51:09;;;;;;;10.60;6.00;;;2.20;99.90;;;;;;5072366;28;20965;-51
2020/12/14 03:53:35;;;;;;;8.17;5.70;;;2.10;99.90;;;;;;5071741;28;20902;-51
2020/12/14 03:56:02;;;;;;;8.60;6.30;;;2.10;99.90;;;;;;5072113;28;20449;-51
2020/12/14 03:58:28;;;;;;;13.10;6.90;;;2.00;99.90;;;;;;5072173;28;20874;-51
2020/12/14 04:00:55;;;;;;;7.93;6.33;;;2.00;99.90;;;;;;5071833;28;20532;-51
2020/12/14 04:03:22;;;;;;;11.73;6.67;;;1.90;99.90;;;;;;5058780;28;20828;-50
2020/12/14 04:05:49;;;;;;;11.80;6.70;;;1.80;99.90;;;;;;5068074;28;20474;-50
2020/12/14 04:08:17;;;;;;;10.77;6.50;;;1.80;99.90;;;;;;5064753;28;21002;-50
2020/12/14 04:10:43;;;;;;;10.40;7.17;;;1.90;99.90;;;;;;5051234;28;20440;-51
2020/12/14 04:13:10;;;;;;;11.10;6.90;;;1.90;99.90;;;;;;5051321;28;20467;-51
2020/12/14 04:15:37;;;;;;;11.17;6.83;;;1.80;99.90;;;;;;5051339;28;20436;-51
2020/12/14 04:18:03;;;;;;;12.23;6.73;;;1.90;99.90;;;;;;5051112;28;20443;-51
2020/12/14 04:20:31;;;;;;;10.50;6.93;;;1.90;99.90;;;;;;5052110;28;20439;-51
2020/12/14 04:22:57;;;;;;;8.60;5.90;;;1.90;99.90;;;;;;5051018;28;20573;-51
2020/12/14 04:25:25;;;;;;;10.23;6.70;;;2.00;99.90;;;;;;5051113;28;20436;-51
2020/12/14 04:27:51;;;;;;;10.73;6.77;;;1.90;99.90;;;;;;5051053;28;20440;-51
2020/12/14 04:30:18;;;;;;;11.73;7.43;;;1.60;99.90;;;;;;5050790;28;20544;-51
2020/12/14 04:32:46;;;;;;;14.80;7.00;;;1.60;99.90;;;;;;5050957;28;20444;-50
2020/12/14 04:35:12;;;;;;;10.40;7.33;;;1.60;99.90;;;;;;5059929;28;20465;-51
2020/12/14 04:37:39;;;;;;;10.07;6.60;;;1.70;99.90;;;;;;5053433;28;20454;-51
2020/12/14 04:40:05;;;;;;;11.13;7.37;;;1.70;99.90;;;;;;5050569;28;20443;-50
2020/12/14 04:42:33;;;;;;;11.53;7.00;;;1.70;99.90;;;;;;5050740;28;20969;-51
2020/12/14 04:45:00;;;;;;;12.00;7.07;;;1.80;99.90;;;;;;5050775;28;20484;-51
2020/12/14 04:47:28;;;;;;;10.80;6.90;;;1.80;99.90;;;;;;5050700;28;20528;-51
2020/12/14 04:49:56;;;;;;;11.30;7.00;;;1.80;99.90;;;;;;5050114;28;20949;-51
2020/12/14 04:52:24;;;;;;;9.33;6.13;;;1.80;99.90;;;;;;5050662;28;20469;-51
2020/12/14 04:54:50;;;;;;;15.23;6.63;;;1.80;99.90;;;;;;5050290;28;20503;-51
2020/12/14 04:57:21;;;;;;;8.73;6.80;;;1.80;99.90;;;;;;5050655;28;20443;-51
2020/12/14 04:59:51;;;;;;;11.10;7.57;;;1.80;99.90;;;;;;5050371;28;20466;-50
2020/12/14 05:02:18;;;;;;;10.70;7.37;;;1.80;99.90;;;;;;5050395;28;20444;-51
2020/12/14 05:04:45;;;;;;;9.60;7.00;;;1.70;99.90;;;;;;5050276;28;20456;-51
2020/12/14 05:07:12;;;;;;;13.13;7.83;;;1.50;99.90;;;;;;5050237;28;20505;-51
2020/12/14 05:09:40;;;;;;;11.27;7.50;;;1.60;99.90;;;;;;5050294;28;20451;-50
2020/12/14 05:12:17;;;;;;;11.60;7.77;;;1.60;99.90;;;;;;5050444;28;20486;-50
2020/12/14 05:14:44;;;;;;;12.00;8.40;;;1.50;99.90;;;;;;5050207;28;20546;-50
2020/12/14 05:17:22;;;;;;;12.10;8.17;;;1.60;99.90;;;;;;5050063;28;20458;-51
2020/12/14 05:19:49;;;;;;;11.70;7.23;;;1.50;99.90;;;;;;5050091;28;20534;-51
2020/12/14 05:22:17;;;;;;;10.20;7.03;;;1.40;99.90;;;;;;5050158;28;20995;-51
2020/12/14 05:24:49;;;;;;;10.93;7.20;;;1.30;99.90;;;;;;5049977;28;20557;-51
2020/12/14 05:27:30;;;;;;;8.77;6.40;;;1.30;99.90;;;;;;5049924;28;21083;-51
2020/12/14 05:29:57;;;;;;;9.00;5.70;;;1.30;99.90;;;;;;5051240;28;20512;-50
2020/12/14 05:32:25;;;;;;;11.00;7.17;;;1.30;99.90;;;;;;5054205;28;20502;-50
2020/12/14 05:34:52;;;;;;;14.60;10.83;;;1.30;99.90;;;;;;5050101;28;20493;-51
2020/12/14 05:37:18;;;;;;;11.17;7.13;;;1.30;99.90;;;;;;5069904;28;20483;-50
2020/12/14 05:39:45;;;;;;;9.67;6.40;;;1.30;99.90;;;;;;5062488;28;20941;-50
2020/12/14 05:42:14;;;;;;;10.10;6.47;;;1.40;99.90;;;;;;5055431;28;20450;-51
2020/12/14 05:44:42;;;;;;;7.93;6.20;;;1.40;99.90;;;;;;5049910;28;21034;-51
2020/12/14 05:47:30;;;;;;;6.93;5.40;;;1.40;99.90;;;;;;5064739;28;20506;-50
2020/12/14 05:49:57;;;;;;;6.70;4.70;;;1.50;99.90;;;;;;5058672;28;20524;-50
2020/12/14 05:52:31;;;;;;;7.30;4.50;;;1.50;99.90;;;;;;5067103;28;20442;-50
2020/12/14 05:54:57;;;;;;;7.30;4.47;;;1.60;99.90;;;;;;5052791;28;20497;-50
2020/12/14 05:57:32;;;;;;;5.67;4.20;;;1.70;99.90;;;;;;5049687;28;20777;-51
2020/12/14 06:00:02;;;;;;;4.70;3.70;;;1.80;99.90;;;;;;5050310;28;20473;-51
2020/12/14 06:02:30;;;;;;;6.13;4.33;;;1.80;99.90;;;;;;5063219;28;20513;-51
2020/12/14 06:04:58;;;;;;;5.47;4.23;;;1.90;99.90;;;;;;5055430;28;20470;-51
2020/12/14 06:07:26;;;;;;;5.83;3.90;;;1.90;99.90;;;;;;5064807;28;20995;-51
2020/12/14 06:10:08;;;;;;;14.47;7.63;;;1.80;99.90;;;;;;5053297;28;20443;-51
2020/12/14 06:12:36;;;;;;;49.33;16.40;;;1.70;99.90;;;;;;5053585;28;20817;-50
2020/12/14 06:15:06;;;;;;;60.33;19.73;;;1.80;99.90;;;;;;5055039;28;20512;-51
2020/12/14 06:17:35;;;;;;;46.50;17.50;;;1.70;99.90;;;;;;5072475;28;20521;-51
2020/12/14 06:20:06;;;;;;;44.57;16.90;;;1.80;99.90;;;;;;5063491;28;20443;-51
2020/12/14 06:22:34;;;;;;;53.67;20.53;;;1.80;99.90;;;;;;5058438;28;20489;-51
2020/12/14 06:25:03;;;;;;;53.73;20.30;;;1.70;99.90;;;;;;5054938;28;20842;-50
2020/12/14 06:27:30;;;;;;;48.93;19.43;;;1.80;99.90;;;;;;5058542;28;20844;-51
2020/12/14 06:29:57;;;;;;;45.70;19.30;;;1.70;99.90;;;;;;5071846;28;20443;-51
2020/12/14 06:32:40;;;;;;;39.77;17.70;;;1.80;99.90;;;;;;5069098;28;20504;-51
2020/12/14 06:35:14;;;;;;;33.30;15.17;;;1.60;99.90;;;;;;5053762;28;21230;-50
2020/12/14 06:37:50;;;;;;;31.40;14.27;;;1.30;99.90;;;;;;5058706;28;20531;-51
2020/12/14 06:40:17;;;;;;;25.00;11.60;;;1.40;99.90;;;;;;5052654;28;20510;-51
2020/12/14 06:42:44;;;;;;;17.53;10.07;;;1.50;99.90;;;;;;5053125;28;20508;-51
2020/12/14 06:45:15;;;;;;;15.63;9.53;;;1.50;99.90;;;;;;5052984;28;20470;-51
2020/12/14 06:47:48;;;;;;;11.43;7.80;;;1.50;99.90;;;;;;5054141;28;20487;-51
2020/12/14 06:50:26;;;;;;;12.03;7.97;;;1.50;99.90;;;;;;5058070;28;20450;-51
2020/12/14 06:52:52;;;;;;;13.23;8.80;;;1.40;99.90;;;;;;5070671;28;20819;-51
2020/12/14 06:55:44;;;;;;;13.30;8.97;;;1.20;99.90;;;;;;5069997;28;20455;-51
2020/12/14 06:58:29;;;;;;;15.43;9.57;;;1.20;99.90;;;;;;5070249;28;20449;-51
2020/12/14 07:00:56;;;;;;;18.00;9.80;;;1.20;99.90;;;;;;5072471;28;21008;-51
2020/12/14 07:03:38;;;;;;;18.73;11.23;;;1.20;99.90;;;;;;5072824;28;20559;-51
2020/12/14 07:06:06;;;;;;;16.23;10.40;;;1.30;99.90;;;;;;5063942;28;21010;-51
2020/12/14 07:08:38;;;;;;;17.20;10.20;;;1.20;99.90;;;;;;5072114;28;20450;-51
2020/12/14 07:11:19;;;;;;;15.17;10.60;;;1.30;99.90;;;;;;5072914;28;20462;-51
2020/12/14 07:13:46;;;;;;;17.10;10.20;;;1.30;99.90;;;;;;5072670;28;20914;-51
2020/12/14 07:16:14;;;;;;;21.17;11.93;;;1.30;99.90;;;;;;5063936;28;20522;-51
2020/12/14 07:18:42;;;;;;;17.27;10.20;;;1.40;99.90;;;;;;5064040;28;20449;-50
2020/12/14 07:21:13;;;;;;;18.43;10.90;;;1.50;99.90;;;;;;5071714;28;20512;-50
2020/12/14 07:23:42;;;;;;;22.60;11.43;;;1.50;99.90;;;;;;5072749;28;20898;-50
2020/12/14 07:26:10;;;;;;;21.30;11.90;;;1.60;99.90;;;;;;5054090;28;20907;-50
2020/12/14 07:28:42;;;;;;;28.33;13.63;;;1.60;99.90;;;;;;5052516;28;20494;-51
2020/12/14 07:31:16;;;;;;;27.73;15.43;;;1.60;99.90;;;;;;5053108;28;20801;-50
2020/12/14 07:33:52;;;;;;;24.17;13.53;;;1.60;99.90;;;;;;5052721;28;20471;-50
2020/12/14 07:36:19;;;;;;;29.93;15.10;;;1.60;99.90;;;;;;5052516;28;20443;-50
2020/12/14 07:38:50;;;;;;;25.00;13.90;;;1.50;99.90;;;;;;5052615;28;20531;-51
2020/12/14 07:41:17;;;;;;;33.60;14.10;;;1.60;99.90;;;;;;5052345;28;20505;-50
2020/12/14 07:43:54;;;;;;;27.63;14.47;;;1.60;99.90;;;;;;5070308;28;20232;-50
2020/12/14 07:46:22;;;;;;;34.40;15.40;;;1.60;99.90;;;;;;5055159;28;20952;-50
2020/12/14 07:49:01;;;;;;;34.60;15.50;;;1.80;99.90;;;;;;5051645;28;20470;-50
2020/12/14 07:51:28;;;;;;;35.37;15.47;;;1.80;99.90;;;;;;5051981;28;20451;-50
2020/12/14 07:54:08;;;;;;;32.13;15.90;;;1.80;99.90;;;;;;5051861;28;20483;-51
2020/12/14 07:56:48;;;;;;;35.03;16.07;;;1.80;99.90;;;;;;5051899;28;20443;-51
2020/12/14 07:59:21;;;;;;;35.23;18.07;;;1.90;99.90;;;;;;5052139;28;20486;-51
2020/12/14 08:01:49;;;;;;;36.43;17.57;;;2.00;99.90;;;;;;5071836;28;21046;-50
2020/12/14 08:04:24;;;;;;;28.93;15.30;;;2.10;99.90;;;;;;5071759;28;20469;-50
2020/12/14 08:06:51;;;;;;;35.07;15.73;;;2.10;99.90;;;;;;5052758;28;20479;-50
2020/12/14 08:09:20;;;;;;;31.80;14.87;;;2.30;99.90;;;;;;5051626;28;20458;-51
2020/12/14 08:11:47;;;;;;;41.60;16.30;;;2.40;99.90;;;;;;5070268;28;20451;-51
2020/12/14 08:14:16;;;;;;;30.97;14.67;;;2.50;99.90;;;;;;5061048;28;20502;-50
2020/12/14 08:16:44;;;;;;;30.83;14.93;;;2.50;99.90;;;;;;5051937;28;20539;-50
2020/12/14 08:19:19;;;;;;;29.10;14.77;;;2.70;99.90;;;;;;5051570;28;20505;-51
2020/12/14 08:22:17;;;;;;;37.40;14.70;;;2.80;99.90;;;;;;5051500;28;20462;-50
2020/12/14 08:24:43;;;;;;;24.50;12.17;;;2.90;99.90;;;;;;4969669;28;20618;-50
2020/12/14 08:27:12;;;;;;;29.23;14.27;;;3.00;99.90;;;;;;5032818;28;21007;-50
2020/12/14 08:29:54;;;;;;;28.80;14.23;;;3.10;99.90;;;;;;5050932;28;20452;-51
2020/12/14 08:32:21;;;;;;;31.90;16.23;;;3.20;99.90;;;;;;5057834;28;20481;-51
2020/12/14 08:34:48;;;;;;;39.13;16.53;;;3.40;99.90;;;;;;5070824;28;20458;-51
2020/12/14 08:37:20;;;;;;;41.60;17.10;;;3.40;99.90;;;;;;5069237;28;20429;-52
2020/12/14 08:39:58;;;;;;;42.50;18.20;;;3.40;99.90;;;;;;5064796;28;20922;-51
2020/12/14 08:42:29;;;;;;;37.00;17.23;;;3.10;99.90;;;;;;5077204;28;21022;-52
2020/12/14 08:45:06;;;;;;;37.63;17.87;;;3.00;99.90;;;;;;5091190;28;20867;-51
2020/12/14 08:47:36;;;;;;;42.73;17.67;;;2.80;99.90;;;;;;5061043;28;20539;-50
2020/12/14 08:50:05;;;;;;;32.90;16.30;;;2.80;99.90;;;;;;5063835;28;20539;-51
2020/12/14 08:52:32;;;;;;;32.57;16.40;;;2.80;99.90;;;;;;5069739;28;20458;-51
2020/12/14 08:54:58;;;;;;;34.17;15.80;;;3.20;99.90;;;;;;5061146;28;20525;-51
2020/12/14 08:57:26;;;;;;;32.60;15.93;;;3.60;99.90;;;;;;5056763;28;20430;-50
2020/12/14 09:00:08;;;;;;;26.23;14.30;;;3.90;99.90;;;;;;5063189;28;20457;-50
2020/12/14 09:02:36;;;;;;;27.50;14.97;;;4.40;99.90;;;;;;5070781;28;20932;-51
2020/12/14 09:05:18;;;;;;;26.80;13.47;;;4.60;99.90;;;;;;5070545;28;20792;-51
2020/12/14 09:07:46;;;;;;;27.87;14.07;;;4.90;99.90;;;;;;5068706;28;20925;-51
2020/12/14 09:10:17;;;;;;;27.23;14.77;;;5.20;99.90;;;;;;5078599;28;20454;-51
2020/12/14 09:12:44;;;;;;;23.77;12.73;;;5.50;99.90;;;;;;5090656;28;20533;-51
2020/12/14 09:15:11;;;;;;;18.07;10.63;;;5.80;99.90;;;;;;5090384;28;20466;-52
2020/12/14 09:17:37;;;;;;;22.87;11.43;;;6.00;99.90;;;;;;5090418;28;20881;-52
2020/12/14 09:20:09;;;;;;;18.97;11.10;;;6.10;99.90;;;;;;5076352;28;20451;-52
2020/12/14 09:22:35;;;;;;;15.60;9.67;;;6.30;99.90;;;;;;5069793;28;21032;-51
2020/12/14 09:25:05;;;;;;;17.90;10.10;;;6.20;99.90;;;;;;5070015;28;20524;-51
2020/12/14 09:27:31;;;;;;;18.30;10.17;;;6.20;99.90;;;;;;5059673;28;20475;-52
2020/12/14 09:29:58;;;;;;;16.93;8.97;;;6.30;99.90;;;;;;5050003;28;20451;-51
2020/12/14 09:32:25;;;;;;;16.13;10.07;;;6.50;99.90;;;;;;5050333;28;20494;-51
2020/12/14 09:34:51;;;;;;;15.43;9.70;;;6.70;99.90;;;;;;5054648;28;20470;-51
2020/12/14 09:37:18;;;;;;;16.57;9.80;;;6.70;99.90;;;;;;5069337;28;20489;-51
2020/12/14 09:39:45;;;;;;;18.43;10.10;;;5.80;99.90;;;;;;5059383;28;20943;-51
2020/12/14 09:42:12;;;;;;;18.30;10.73;;;5.50;99.90;;;;;;5049886;28;20455;-51
2020/12/14 09:44:39;;;;;;;23.90;11.87;;;5.50;99.90;;;;;;5050246;28;20494;-52
2020/12/14 09:47:06;;;;;;;20.83;11.50;;;5.30;99.90;;;;;;5050030;28;21008;-51
2020/12/14 09:49:32;;;;;;;18.53;10.40;;;5.40;99.90;;;;;;5049964;28;20447;-51
2020/12/14 09:51:59;;;;;;;20.17;11.43;;;5.50;99.90;;;;;;5067835;28;20427;-52
2020/12/14 09:54:25;;;;;;;17.37;10.23;;;5.60;99.90;;;;;;5069910;28;20500;-51
2020/12/14 09:56:52;;;;;;;18.47;10.10;;;5.70;99.90;;;;;;5069865;28;20434;-52
2020/12/14 09:59:19;;;;;;;19.13;10.37;;;5.80;99.90;;;;;;5069959;28;20439;-51
2020/12/14 10:01:46;;;;;;;17.87;9.93;;;6.00;99.90;;;;;;5069244;28;20496;-52
2020/12/14 10:04:12;;;;;;;20.50;11.07;;;5.90;99.90;;;;;;5069148;28;20475;-52
2020/12/14 10:06:39;;;;;;;18.27;10.33;;;5.90;99.90;;;;;;5069189;28;20489;-53
2020/12/14 10:09:05;;;;;;;16.37;9.20;;;6.00;99.90;;;;;;5069623;28;20447;-52
2020/12/14 10:11:34;;;;;;;15.77;8.23;;;6.20;99.90;;;;;;5069247;28;20451;-53
2020/12/14 10:14:02;;;;;;;14.63;9.13;;;6.60;99.90;;;;;;5069703;28;20464;-53
2020/12/14 10:16:29;;;;;;;15.03;8.33;;;7.00;99.90;;;;;;5068426;28;20824;-53
2020/12/14 10:18:56;;;;;;;12.40;8.40;;;7.60;99.90;;;;;;5069319;28;20447;-53
2020/12/14 10:21:22;;;;;;;15.93;8.97;;;8.10;99.90;;;;;;5068766;28;20880;-53
2020/12/14 10:23:49;;;;;;;15.10;8.97;;;8.30;99.90;;;;;;5069463;28;20466;-53
2020/12/14 10:26:17;;;;;;;15.20;9.77;;;8.50;99.90;;;;;;5069174;28;20446;-53
2020/12/14 10:28:43;;;;;;;14.60;9.40;;;8.80;99.90;;;;;;5069629;28;20446;-53
2020/12/14 10:31:09;;;;;;;14.53;8.97;;;8.70;99.90;;;;;;5067511;28;20447;-52
2020/12/14 10:33:37;;;;;;;13.47;8.67;;;8.30;99.90;;;;;;5069437;28;20471;-53
2020/12/14 10:36:08;;;;;;;14.33;9.70;;;8.30;99.90;;;;;;5069719;28;20458;-53
2020/12/14 10:38:35;;;;;;;13.03;8.57;;;8.50;99.90;;;;;;5069362;28;20488;-52
2020/12/14 10:41:02;;;;;;;15.23;9.60;;;8.70;99.90;;;;;;5069515;28;20442;-52
2020/12/14 10:43:28;;;;;;;15.90;9.83;;;8.30;99.90;;;;;;5069289;28;20473;-52
2020/12/14 10:45:55;;;;;;;12.90;9.47;;;7.90;99.90;;;;;;5069575;28;20446;-52
2020/12/14 10:48:21;;;;;;;16.10;10.37;;;7.50;99.90;;;;;;5071356;28;20478;-52
2020/12/14 10:50:48;;;;;;;16.13;9.53;;;7.60;99.90;;;;;;5072763;28;20451;-53
2020/12/14 10:53:15;;;;;;;17.10;10.70;;;7.50;99.90;;;;;;5071974;28;20482;-52
2020/12/14 10:55:42;;;;;;;17.60;10.50;;;7.60;99.90;;;;;;5061781;28;20443;-51
2020/12/14 10:58:10;;;;;;;15.30;9.73;;;7.10;99.90;;;;;;5052176;28;20566;-51
2020/12/14 11:00:37;;;;;;;18.27;10.63;;;7.10;99.90;;;;;;5058980;28;20959;-51
2020/12/14 11:03:04;;;;;;;16.43;10.30;;;7.20;99.90;;;;;;5052195;28;21027;-52
2020/12/14 11:05:30;;;;;;;17.87;10.77;;;7.10;99.90;;;;;;5070864;28;20520;-52
2020/12/14 11:07:58;;;;;;;16.83;10.40;;;7.00;99.90;;;;;;5070869;28;20486;-52
2020/12/14 11:10:24;;;;;;;17.10;10.77;;;6.80;99.90;;;;;;5070754;28;20525;-52
2020/12/14 11:12:51;;;;;;;19.70;11.50;;;6.30;99.90;;;;;;5057785;28;20446;-52
2020/12/14 11:15:17;;;;;;;21.13;12.00;;;6.20;99.90;;;;;;5052143;28;20443;-51
2020/12/14 11:17:44;;;;;;;22.60;13.70;;;6.20;99.90;;;;;;5052555;28;20455;-52
2020/12/14 11:20:12;;;;;;;20.67;11.40;;;6.00;99.90;;;;;;5052104;28;20929;-51
2020/12/14 11:22:39;;;;;;;21.27;11.93;;;5.80;99.90;;;;;;5052564;28;20531;-51
2020/12/14 11:25:07;;;;;;;20.50;11.40;;;5.80;99.90;;;;;;5053478;28;20464;-51
2020/12/14 11:27:33;;;;;;;19.53;11.43;;;5.50;99.90;;;;;;5051668;28;20472;-51
2020/12/14 11:30:00;;;;;;;23.20;12.33;;;5.40;99.90;;;;;;5051913;28;20451;-51
2020/12/14 11:32:28;;;;;;;21.70;11.73;;;5.50;99.90;;;;;;5051992;28;20435;-51
2020/12/14 11:34:54;;;;;;;20.58;13.07;;;5.50;99.90;;;;;;5050774;28;20452;-52
2020/12/14 11:37:21;;;;;;;21.90;12.50;;;5.60;99.90;;;;;;5052819;28;20193;-52
2020/12/14 11:39:47;;;;;;;22.87;12.27;;;5.60;99.90;;;;;;5051417;28;20573;-52
2020/12/14 11:42:15;;;;;;;22.37;12.73;;;5.50;99.90;;;;;;5052012;28;20447;-51
2020/12/14 11:44:41;;;;;;;21.87;11.60;;;5.40;99.90;;;;;;5052199;28;20847;-52
2020/12/14 11:47:08;;;;;;;23.20;13.27;;;5.30;99.90;;;;;;5054151;28;20490;-52
2020/12/14 11:49:35;;;;;;;25.20;13.40;;;5.50;99.90;;;;;;5071994;28;20451;-51
2020/12/14 11:52:01;;;;;;;20.73;12.17;;;5.50;99.90;;;;;;5072154;28;20471;-51
2020/12/14 11:54:28;;;;;;;20.83;12.23;;;5.70;99.90;;;;;;5071243;28;20509;-52
2020/12/14 11:56:55;;;;;;;19.20;11.43;;;5.80;99.90;;;;;;5070986;28;20525;-52
2020/12/14 11:59:22;;;;;;;19.17;11.50;;;5.80;99.90;;;;;;5070551;28;20450;-52
2020/12/14 12:01:50;;;;;;;21.73;11.97;;;5.70;99.90;;;;;;5071712;28;20459;-52
2020/12/14 12:04:16;;;;;;;21.30;11.50;;;5.80;99.90;;;;;;5071847;28;20476;-52
2020/12/14 12:06:43;;;;;;;17.07;10.83;;;5.90;99.90;;;;;;5071648;28;20513;-52
2020/12/14 12:09:09;;;;;;;17.80;10.10;;;5.90;99.90;;;;;;5071339;28;20443;-52
2020/12/14 12:11:36;;;;;;;17.73;10.53;;;5.70;99.90;;;;;;5071114;28;20458;-51
2020/12/14 12:14:02;;;;;;;21.33;11.33;;;5.90;99.90;;;;;;5063795;28;20471;-52
2020/12/14 12:16:31;;;;;;;18.77;9.90;;;6.00;99.90;;;;;;5064529;28;20435;-52
2020/12/14 12:19:00;;;;;;;20.17;11.20;;;6.10;99.90;;;;;;5068371;28;20447;-51
2020/12/14 12:21:27;;;;;;;17.77;10.17;;;6.10;99.90;;;;;;5050761;28;20444;-51
2020/12/14 12:23:53;;;;;;;17.83;10.70;;;6.10;99.90;;;;;;5050533;28;20462;-52
2020/12/14 12:26:20;;;;;;;17.73;10.77;;;6.10;99.90;;;;;;5051230;28;20938;-52
2020/12/14 12:28:46;;;;;;;16.27;8.97;;;6.20;99.90;;;;;;5051263;28;20445;-52
2020/12/14 12:31:13;;;;;;;18.20;10.83;;;6.40;99.90;;;;;;5051756;28;20453;-52
2020/12/14 12:33:41;;;;;;;17.87;9.93;;;6.30;99.90;;;;;;5050428;28;20448;-52
2020/12/14 12:36:09;;;;;;;16.47;9.80;;;6.00;99.90;;;;;;5050774;28;20440;-52
2020/12/14 12:38:35;;;;;;;20.17;10.40;;;5.90;99.90;;;;;;5050710;28;20441;-51
2020/12/14 12:41:02;;;;;;;16.63;10.00;;;5.50;99.90;;;;;;5050599;28;20443;-52
2020/12/14 12:43:28;;;;;;;19.57;10.97;;;5.40;99.90;;;;;;5050756;28;20459;-52
2020/12/14 12:45:55;;;;;;;19.37;10.50;;;5.30;99.90;;;;;;5069431;28;20451;-52
2020/12/14 12:48:21;;;;;;;16.20;9.80;;;5.40;99.90;;;;;;5067886;28;20478;-51
2020/12/14 12:50:54;;;;;;;18.10;9.90;;;5.50;99.90;;;;;;5060369;28;20879;-51